sensor_id;sensor_type;location;lat;lon;timestamp;P1;durP1;ratioP1;P2;durP2;ratioP2
43646;SDS011;56152;49.996;18.980;2022-12-29T00:03:56;6.35;;;3.80;;
43646;SDS011;56152;49.996;18.980;2022-12-29T00:14:08;9.77;;;5.13;;
43646;SDS011;56152;49.996;18.980;2022-12-29T00:19:29;12.90;;;6.35;;
43646;SDS011;56152;49.996;18.980;2022-12-29T00:30:14;8.20;;;3.97;;
43646;SDS011;56152;49.996;18.980;2022-12-29T00:35:38;8.13;;;3.70;;
43646;SDS011;56152;49.996;18.980;2022-12-29T00:40:45;7.23;;;3.50;;
43646;SDS011;56152;49.996;18.980;2022-12-29T00:46:11;5.50;;;3.60;;
43646;SDS011;56152;49.996;18.980;2022-12-29T00:51:14;5.80;;;3.17;;
43646;SDS011;56152;49.996;18.980;2022-12-29T00:56:16;5.30;;;3.35;;
43646;SDS011;56152;49.996;18.980;2022-12-29T01:01:18;11.60;;;4.13;;
43646;SDS011;56152;49.996;18.980;2022-12-29T01:06:24;7.35;;;3.95;;
43646;SDS011;56152;49.996;18.980;2022-12-29T01:11:26;4.70;;;3.13;;
43646;SDS011;56152;49.996;18.980;2022-12-29T01:16:28;6.18;;;3.22;;
43646;SDS011;56152;49.996;18.980;2022-12-29T01:21:33;5.60;;;3.47;;
43646;SDS011;56152;49.996;18.980;2022-12-29T01:26:35;6.38;;;2.95;;
43646;SDS011;56152;49.996;18.980;2022-12-29T01:31:41;8.38;;;4.35;;
43646;SDS011;56152;49.996;18.980;2022-12-29T01:36:45;11.07;;;5.45;;
43646;SDS011;56152;49.996;18.980;2022-12-29T01:41:47;12.93;;;5.78;;
43646;SDS011;56152;49.996;18.980;2022-12-29T01:46:49;8.20;;;3.75;;
43646;SDS011;56152;49.996;18.980;2022-12-29T01:51:55;7.80;;;3.55;;
43646;SDS011;56152;49.996;18.980;2022-12-29T01:57:00;4.95;;;3.05;;
43646;SDS011;56152;49.996;18.980;2022-12-29T02:02:04;6.47;;;3.53;;
43646;SDS011;56152;49.996;18.980;2022-12-29T02:12:18;9.32;;;4.65;;
43646;SDS011;56152;49.996;18.980;2022-12-29T02:17:37;8.77;;;4.60;;
43646;SDS011;56152;49.996;18.980;2022-12-29T02:23:11;7.32;;;3.70;;
43646;SDS011;56152;49.996;18.980;2022-12-29T02:28:50;7.63;;;3.92;;
43646;SDS011;56152;49.996;18.980;2022-12-29T02:34:20;6.70;;;4.33;;
43646;SDS011;56152;49.996;18.980;2022-12-29T02:39:34;7.83;;;4.47;;
43646;SDS011;56152;49.996;18.980;2022-12-29T02:44:45;8.95;;;4.53;;
43646;SDS011;56152;49.996;18.980;2022-12-29T02:50:02;9.20;;;4.87;;
43646;SDS011;56152;49.996;18.980;2022-12-29T02:55:09;9.30;;;4.25;;
43646;SDS011;56152;49.996;18.980;2022-12-29T03:00:13;9.98;;;5.22;;
43646;SDS011;56152;49.996;18.980;2022-12-29T03:05:20;12.43;;;6.35;;
43646;SDS011;56152;49.996;18.980;2022-12-29T03:10:35;13.05;;;5.57;;
43646;SDS011;56152;49.996;18.980;2022-12-29T03:15:53;12.90;;;7.77;;
43646;SDS011;56152;49.996;18.980;2022-12-29T03:21:05;13.63;;;7.23;;
43646;SDS011;56152;49.996;18.980;2022-12-29T03:26:12;57.17;;;18.80;;
43646;SDS011;56152;49.996;18.980;2022-12-29T03:31:18;29.43;;;10.10;;
43646;SDS011;56152;49.996;18.980;2022-12-29T03:36:27;17.77;;;8.20;;
43646;SDS011;56152;49.996;18.980;2022-12-29T03:41:33;17.92;;;8.55;;
43646;SDS011;56152;49.996;18.980;2022-12-29T03:46:36;21.33;;;11.47;;
43646;SDS011;56152;49.996;18.980;2022-12-29T03:51:40;27.50;;;12.53;;
43646;SDS011;56152;49.996;18.980;2022-12-29T03:56:47;28.33;;;12.17;;
43646;SDS011;56152;49.996;18.980;2022-12-29T04:01:49;21.43;;;10.50;;
43646;SDS011;56152;49.996;18.980;2022-12-29T04:06:55;22.87;;;11.10;;
43646;SDS011;56152;49.996;18.980;2022-12-29T04:11:57;22.27;;;11.00;;
43646;SDS011;56152;49.996;18.980;2022-12-29T04:16:59;20.70;;;10.60;;
43646;SDS011;56152;49.996;18.980;2022-12-29T04:22:04;19.43;;;10.77;;
43646;SDS011;56152;49.996;18.980;2022-12-29T04:27:06;22.43;;;9.23;;
43646;SDS011;56152;49.996;18.980;2022-12-29T04:32:09;16.60;;;7.17;;
43646;SDS011;56152;49.996;18.980;2022-12-29T04:37:12;12.20;;;6.23;;
43646;SDS011;56152;49.996;18.980;2022-12-29T04:42:14;12.13;;;5.53;;
43646;SDS011;56152;49.996;18.980;2022-12-29T04:47:17;16.70;;;7.10;;
43646;SDS011;56152;49.996;18.980;2022-12-29T04:52:24;11.50;;;6.03;;
43646;SDS011;56152;49.996;18.980;2022-12-29T04:57:28;12.50;;;5.80;;
43646;SDS011;56152;49.996;18.980;2022-12-29T05:02:30;11.10;;;5.83;;
43646;SDS011;56152;49.996;18.980;2022-12-29T05:07:34;9.50;;;6.27;;
43646;SDS011;56152;49.996;18.980;2022-12-29T05:12:36;14.50;;;8.67;;
43646;SDS011;56152;49.996;18.980;2022-12-29T05:17:39;16.80;;;9.03;;
43646;SDS011;56152;49.996;18.980;2022-12-29T05:22:43;12.77;;;7.30;;
43646;SDS011;56152;49.996;18.980;2022-12-29T05:27:45;11.93;;;4.93;;
43646;SDS011;56152;49.996;18.980;2022-12-29T05:32:47;9.90;;;4.90;;
43646;SDS011;56152;49.996;18.980;2022-12-29T05:37:51;12.50;;;4.27;;
43646;SDS011;56152;49.996;18.980;2022-12-29T05:42:53;8.37;;;4.37;;
43646;SDS011;56152;49.996;18.980;2022-12-29T05:47:55;6.77;;;4.17;;
43646;SDS011;56152;49.996;18.980;2022-12-29T05:52:58;6.13;;;3.83;;
43646;SDS011;56152;49.996;18.980;2022-12-29T05:58:03;7.43;;;4.30;;
43646;SDS011;56152;49.996;18.980;2022-12-29T06:03:06;7.15;;;4.82;;
43646;SDS011;56152;49.996;18.980;2022-12-29T06:08:10;7.87;;;4.10;;
43646;SDS011;56152;49.996;18.980;2022-12-29T06:13:12;10.48;;;4.07;;
43646;SDS011;56152;49.996;18.980;2022-12-29T06:18:21;6.77;;;3.97;;
43646;SDS011;56152;49.996;18.980;2022-12-29T06:23:27;9.50;;;5.30;;
43646;SDS011;56152;49.996;18.980;2022-12-29T06:28:37;10.98;;;4.78;;
43646;SDS011;56152;49.996;18.980;2022-12-29T06:33:39;8.63;;;4.53;;
43646;SDS011;56152;49.996;18.980;2022-12-29T06:38:44;9.48;;;5.25;;
43646;SDS011;56152;49.996;18.980;2022-12-29T06:43:46;7.25;;;4.32;;
43646;SDS011;56152;49.996;18.980;2022-12-29T06:48:48;5.03;;;3.42;;
43646;SDS011;56152;49.996;18.980;2022-12-29T06:53:51;5.50;;;3.00;;
43646;SDS011;56152;49.996;18.980;2022-12-29T06:58:53;4.93;;;3.20;;
43646;SDS011;56152;49.996;18.980;2022-12-29T07:03:55;4.53;;;3.13;;
43646;SDS011;56152;49.996;18.980;2022-12-29T07:09:00;6.22;;;3.30;;
43646;SDS011;56152;49.996;18.980;2022-12-29T07:14:02;7.85;;;3.88;;
43646;SDS011;56152;49.996;18.980;2022-12-29T07:19:04;6.90;;;4.15;;
43646;SDS011;56152;49.996;18.980;2022-12-29T07:24:09;7.22;;;4.05;;
43646;SDS011;56152;49.996;18.980;2022-12-29T07:29:11;6.15;;;3.80;;
43646;SDS011;56152;49.996;18.980;2022-12-29T07:34:27;9.40;;;4.35;;
43646;SDS011;56152;49.996;18.980;2022-12-29T07:39:33;10.10;;;4.50;;
43646;SDS011;56152;49.996;18.980;2022-12-29T07:44:38;9.65;;;4.35;;
43646;SDS011;56152;49.996;18.980;2022-12-29T07:49:42;7.65;;;4.55;;
43646;SDS011;56152;49.996;18.980;2022-12-29T07:54:45;8.30;;;4.85;;
43646;SDS011;56152;49.996;18.980;2022-12-29T07:59:47;8.02;;;5.22;;
43646;SDS011;56152;49.996;18.980;2022-12-29T08:04:49;12.90;;;5.00;;
43646;SDS011;56152;49.996;18.980;2022-12-29T08:09:54;8.75;;;4.68;;
43646;SDS011;56152;49.996;18.980;2022-12-29T08:15:00;8.52;;;4.78;;
43646;SDS011;56152;49.996;18.980;2022-12-29T08:20:03;8.82;;;4.68;;
43646;SDS011;56152;49.996;18.980;2022-12-29T08:25:08;8.93;;;4.65;;
43646;SDS011;56152;49.996;18.980;2022-12-29T08:30:16;10.18;;;5.35;;
43646;SDS011;56152;49.996;18.980;2022-12-29T08:35:21;6.85;;;4.68;;
43646;SDS011;56152;49.996;18.980;2022-12-29T08:40:34;6.63;;;4.43;;
43646;SDS011;56152;49.996;18.980;2022-12-29T08:45:36;9.52;;;4.85;;
43646;SDS011;56152;49.996;18.980;2022-12-29T08:50:38;8.10;;;4.95;;
43646;SDS011;56152;49.996;18.980;2022-12-29T08:55:41;6.80;;;4.07;;
43646;SDS011;56152;49.996;18.980;2022-12-29T09:00:43;8.90;;;4.68;;
43646;SDS011;56152;49.996;18.980;2022-12-29T09:05:48;10.00;;;5.88;;
43646;SDS011;56152;49.996;18.980;2022-12-29T09:10:52;7.80;;;4.53;;
43646;SDS011;56152;49.996;18.980;2022-12-29T09:15:57;7.55;;;4.78;;
43646;SDS011;56152;49.996;18.980;2022-12-29T09:21:00;8.13;;;4.93;;
43646;SDS011;56152;49.996;18.980;2022-12-29T09:26:06;7.55;;;4.50;;
43646;SDS011;56152;49.996;18.980;2022-12-29T09:31:08;7.60;;;4.72;;
43646;SDS011;56152;49.996;18.980;2022-12-29T09:36:11;7.85;;;4.60;;
43646;SDS011;56152;49.996;18.980;2022-12-29T09:41:16;9.90;;;5.40;;
43646;SDS011;56152;49.996;18.980;2022-12-29T09:46:26;10.10;;;5.65;;
43646;SDS011;56152;49.996;18.980;2022-12-29T09:51:30;10.90;;;5.72;;
43646;SDS011;56152;49.996;18.980;2022-12-29T09:56:39;12.63;;;7.40;;
43646;SDS011;56152;49.996;18.980;2022-12-29T10:01:42;21.83;;;11.95;;
43646;SDS011;56152;49.996;18.980;2022-12-29T10:06:54;17.27;;;9.68;;
43646;SDS011;56152;49.996;18.980;2022-12-29T10:12:06;22.35;;;8.75;;
43646;SDS011;56152;49.996;18.980;2022-12-29T10:22:32;10.07;;;5.38;;
43646;SDS011;56152;49.996;18.980;2022-12-29T10:27:48;10.20;;;5.88;;
43646;SDS011;56152;49.996;18.980;2022-12-29T10:32:52;16.25;;;9.80;;
43646;SDS011;56152;49.996;18.980;2022-12-29T10:37:59;11.73;;;6.30;;
43646;SDS011;56152;49.996;18.980;2022-12-29T10:43:12;13.43;;;6.45;;
43646;SDS011;56152;49.996;18.980;2022-12-29T10:48:24;11.57;;;6.35;;
43646;SDS011;56152;49.996;18.980;2022-12-29T10:53:30;12.40;;;6.20;;
43646;SDS011;56152;49.996;18.980;2022-12-29T10:58:40;8.52;;;5.07;;
43646;SDS011;56152;49.996;18.980;2022-12-29T11:03:47;13.13;;;5.28;;
43646;SDS011;56152;49.996;18.980;2022-12-29T11:08:56;7.57;;;5.15;;
43646;SDS011;56152;49.996;18.980;2022-12-29T11:14:08;11.75;;;6.25;;
43646;SDS011;56152;49.996;18.980;2022-12-29T11:19:20;8.93;;;5.75;;
43646;SDS011;56152;49.996;18.980;2022-12-29T11:24:24;13.75;;;6.18;;
43646;SDS011;56152;49.996;18.980;2022-12-29T11:29:28;9.82;;;5.28;;
43646;SDS011;56152;49.996;18.980;2022-12-29T11:34:40;10.80;;;6.05;;
43646;SDS011;56152;49.996;18.980;2022-12-29T11:39:44;9.05;;;5.97;;
43646;SDS011;56152;49.996;18.980;2022-12-29T11:44:53;6.22;;;4.05;;
43646;SDS011;56152;49.996;18.980;2022-12-29T11:49:56;8.98;;;5.63;;
43646;SDS011;56152;49.996;18.980;2022-12-29T11:55:02;10.50;;;6.43;;
43646;SDS011;56152;49.996;18.980;2022-12-29T12:00:16;10.43;;;5.27;;
43646;SDS011;56152;49.996;18.980;2022-12-29T12:05:28;11.27;;;5.97;;
43646;SDS011;56152;49.996;18.980;2022-12-29T12:10:35;10.23;;;6.53;;
43646;SDS011;56152;49.996;18.980;2022-12-29T12:15:49;11.85;;;6.45;;
43646;SDS011;56152;49.996;18.980;2022-12-29T12:20:56;10.05;;;6.00;;
43646;SDS011;56152;49.996;18.980;2022-12-29T12:31:18;11.73;;;6.70;;
43646;SDS011;56152;49.996;18.980;2022-12-29T12:36:29;12.65;;;6.45;;
43646;SDS011;56152;49.996;18.980;2022-12-29T12:41:45;11.88;;;7.22;;
43646;SDS011;56152;49.996;18.980;2022-12-29T12:52:33;12.35;;;6.30;;
43646;SDS011;56152;49.996;18.980;2022-12-29T12:57:48;11.60;;;6.35;;
43646;SDS011;56152;49.996;18.980;2022-12-29T13:03:05;11.95;;;6.60;;
43646;SDS011;56152;49.996;18.980;2022-12-29T13:08:21;12.68;;;6.30;;
43646;SDS011;56152;49.996;18.980;2022-12-29T13:13:45;10.20;;;6.10;;
43646;SDS011;56152;49.996;18.980;2022-12-29T13:19:04;8.95;;;5.53;;
43646;SDS011;56152;49.996;18.980;2022-12-29T13:24:15;9.10;;;5.85;;
43646;SDS011;56152;49.996;18.980;2022-12-29T13:29:32;11.50;;;6.22;;
43646;SDS011;56152;49.996;18.980;2022-12-29T13:34:39;9.30;;;5.40;;
43646;SDS011;56152;49.996;18.980;2022-12-29T13:39:49;9.70;;;5.60;;
43646;SDS011;56152;49.996;18.980;2022-12-29T13:44:57;9.90;;;5.90;;
43646;SDS011;56152;49.996;18.980;2022-12-29T13:50:11;7.72;;;5.20;;
43646;SDS011;56152;49.996;18.980;2022-12-29T13:55:19;9.77;;;5.07;;
43646;SDS011;56152;49.996;18.980;2022-12-29T14:00:26;10.60;;;6.15;;
43646;SDS011;56152;49.996;18.980;2022-12-29T14:05:34;7.78;;;5.25;;
43646;SDS011;56152;49.996;18.980;2022-12-29T14:10:37;8.77;;;4.80;;
43646;SDS011;56152;49.996;18.980;2022-12-29T14:15:50;11.45;;;6.07;;
43646;SDS011;56152;49.996;18.980;2022-12-29T14:20:57;9.05;;;5.50;;
43646;SDS011;56152;49.996;18.980;2022-12-29T14:26:17;12.57;;;7.68;;
43646;SDS011;56152;49.996;18.980;2022-12-29T14:31:36;11.30;;;6.15;;
43646;SDS011;56152;49.996;18.980;2022-12-29T14:42:06;12.10;;;6.95;;
43646;SDS011;56152;49.996;18.980;2022-12-29T14:47:25;10.23;;;6.05;;
43646;SDS011;56152;49.996;18.980;2022-12-29T14:52:35;10.73;;;6.28;;
43646;SDS011;56152;49.996;18.980;2022-12-29T14:57:48;10.57;;;6.72;;
43646;SDS011;56152;49.996;18.980;2022-12-29T15:02:54;12.65;;;6.45;;
43646;SDS011;56152;49.996;18.980;2022-12-29T15:08:07;13.85;;;6.57;;
43646;SDS011;56152;49.996;18.980;2022-12-29T15:13:17;12.70;;;7.50;;
43646;SDS011;56152;49.996;18.980;2022-12-29T15:18:23;16.58;;;7.60;;
43646;SDS011;56152;49.996;18.980;2022-12-29T15:23:32;17.92;;;9.50;;
43646;SDS011;56152;49.996;18.980;2022-12-29T15:28:37;20.75;;;12.25;;
43646;SDS011;56152;49.996;18.980;2022-12-29T15:33:41;18.50;;;10.07;;
43646;SDS011;56152;49.996;18.980;2022-12-29T15:38:46;19.25;;;10.40;;
43646;SDS011;56152;49.996;18.980;2022-12-29T15:43:51;23.95;;;9.80;;
43646;SDS011;56152;49.996;18.980;2022-12-29T15:49:04;21.95;;;11.68;;
43646;SDS011;56152;49.996;18.980;2022-12-29T15:54:14;27.58;;;13.50;;
43646;SDS011;56152;49.996;18.980;2022-12-29T15:59:27;22.38;;;11.93;;
43646;SDS011;56152;49.996;18.980;2022-12-29T16:04:30;18.92;;;11.85;;
43646;SDS011;56152;49.996;18.980;2022-12-29T16:09:35;21.48;;;12.13;;
43646;SDS011;56152;49.996;18.980;2022-12-29T16:14:46;19.02;;;10.85;;
43646;SDS011;56152;49.996;18.980;2022-12-29T16:19:49;18.08;;;10.10;;
43646;SDS011;56152;49.996;18.980;2022-12-29T16:24:58;30.25;;;16.13;;
43646;SDS011;56152;49.996;18.980;2022-12-29T16:30:03;31.80;;;17.23;;
43646;SDS011;56152;49.996;18.980;2022-12-29T16:35:12;27.52;;;15.27;;
43646;SDS011;56152;49.996;18.980;2022-12-29T16:45:47;26.75;;;13.20;;
43646;SDS011;56152;49.996;18.980;2022-12-29T16:51:24;23.10;;;12.43;;
43646;SDS011;56152;49.996;18.980;2022-12-29T16:56:33;24.48;;;12.90;;
43646;SDS011;56152;49.996;18.980;2022-12-29T17:01:38;29.73;;;14.77;;
43646;SDS011;56152;49.996;18.980;2022-12-29T17:06:41;31.73;;;16.75;;
43646;SDS011;56152;49.996;18.980;2022-12-29T17:11:44;25.33;;;14.07;;
43646;SDS011;56152;49.996;18.980;2022-12-29T17:16:58;39.53;;;19.85;;
43646;SDS011;56152;49.996;18.980;2022-12-29T17:22:01;52.97;;;25.80;;
43646;SDS011;56152;49.996;18.980;2022-12-29T17:27:05;38.00;;;18.20;;
43646;SDS011;56152;49.996;18.980;2022-12-29T17:32:09;67.40;;;31.08;;
43646;SDS011;56152;49.996;18.980;2022-12-29T17:37:21;70.70;;;28.50;;
43646;SDS011;56152;49.996;18.980;2022-12-29T17:42:36;57.40;;;25.65;;
43646;SDS011;56152;49.996;18.980;2022-12-29T17:47:42;28.92;;;15.73;;
43646;SDS011;56152;49.996;18.980;2022-12-29T17:52:48;22.70;;;12.40;;
43646;SDS011;56152;49.996;18.980;2022-12-29T17:57:54;37.45;;;17.90;;
43646;SDS011;56152;49.996;18.980;2022-12-29T18:03:01;48.22;;;21.38;;
43646;SDS011;56152;49.996;18.980;2022-12-29T18:08:03;44.08;;;24.27;;
43646;SDS011;56152;49.996;18.980;2022-12-29T18:13:08;35.25;;;17.95;;
43646;SDS011;56152;49.996;18.980;2022-12-29T18:18:20;36.13;;;17.20;;
43646;SDS011;56152;49.996;18.980;2022-12-29T18:23:23;39.17;;;18.92;;
43646;SDS011;56152;49.996;18.980;2022-12-29T18:28:29;40.20;;;19.60;;
43646;SDS011;56152;49.996;18.980;2022-12-29T18:33:31;26.45;;;14.50;;
43646;SDS011;56152;49.996;18.980;2022-12-29T18:38:34;21.52;;;11.85;;
43646;SDS011;56152;49.996;18.980;2022-12-29T18:43:37;22.73;;;11.35;;
43646;SDS011;56152;49.996;18.980;2022-12-29T18:48:40;26.55;;;14.20;;
43646;SDS011;56152;49.996;18.980;2022-12-29T18:53:43;48.35;;;24.50;;
43646;SDS011;56152;49.996;18.980;2022-12-29T18:58:46;44.15;;;22.83;;
43646;SDS011;56152;49.996;18.980;2022-12-29T19:03:48;55.50;;;25.35;;
43646;SDS011;56152;49.996;18.980;2022-12-29T19:08:51;51.42;;;26.15;;
43646;SDS011;56152;49.996;18.980;2022-12-29T19:13:54;40.58;;;18.85;;
43646;SDS011;56152;49.996;18.980;2022-12-29T19:18:57;40.03;;;19.75;;
43646;SDS011;56152;49.996;18.980;2022-12-29T19:24:00;59.88;;;25.70;;
43646;SDS011;56152;49.996;18.980;2022-12-29T19:29:04;67.68;;;34.80;;
43646;SDS011;56152;49.996;18.980;2022-12-29T19:34:07;54.22;;;26.50;;
43646;SDS011;56152;49.996;18.980;2022-12-29T19:39:12;48.78;;;23.48;;
43646;SDS011;56152;49.996;18.980;2022-12-29T19:44:16;52.88;;;23.58;;
43646;SDS011;56152;49.996;18.980;2022-12-29T19:49:20;40.38;;;20.77;;
43646;SDS011;56152;49.996;18.980;2022-12-29T19:54:22;56.08;;;26.65;;
43646;SDS011;56152;49.996;18.980;2022-12-29T19:59:28;51.10;;;27.30;;
43646;SDS011;56152;49.996;18.980;2022-12-29T20:04:30;52.70;;;27.13;;
43646;SDS011;56152;49.996;18.980;2022-12-29T20:09:32;46.88;;;24.33;;
43646;SDS011;56152;49.996;18.980;2022-12-29T20:14:36;38.28;;;18.55;;
43646;SDS011;56152;49.996;18.980;2022-12-29T20:19:38;52.17;;;29.30;;
43646;SDS011;56152;49.996;18.980;2022-12-29T20:24:43;41.28;;;21.38;;
43646;SDS011;56152;49.996;18.980;2022-12-29T20:29:47;44.25;;;22.38;;
43646;SDS011;56152;49.996;18.980;2022-12-29T20:34:52;44.85;;;22.55;;
43646;SDS011;56152;49.996;18.980;2022-12-29T20:39:58;43.50;;;22.90;;
43646;SDS011;56152;49.996;18.980;2022-12-29T20:45:03;41.97;;;21.27;;
43646;SDS011;56152;49.996;18.980;2022-12-29T20:50:06;42.13;;;20.13;;
43646;SDS011;56152;49.996;18.980;2022-12-29T20:55:09;41.50;;;19.67;;
43646;SDS011;56152;49.996;18.980;2022-12-29T21:00:18;36.63;;;19.08;;
43646;SDS011;56152;49.996;18.980;2022-12-29T21:05:20;40.50;;;15.93;;
43646;SDS011;56152;49.996;18.980;2022-12-29T21:10:26;32.63;;;17.35;;
43646;SDS011;56152;49.996;18.980;2022-12-29T21:15:31;42.15;;;20.85;;
43646;SDS011;56152;49.996;18.980;2022-12-29T21:20:41;48.83;;;22.75;;
43646;SDS011;56152;49.996;18.980;2022-12-29T21:25:43;46.28;;;22.65;;
43646;SDS011;56152;49.996;18.980;2022-12-29T21:30:47;62.78;;;29.10;;
43646;SDS011;56152;49.996;18.980;2022-12-29T21:35:49;66.00;;;29.58;;
43646;SDS011;56152;49.996;18.980;2022-12-29T21:40:51;59.60;;;27.92;;
43646;SDS011;56152;49.996;18.980;2022-12-29T21:45:55;58.00;;;28.20;;
43646;SDS011;56152;49.996;18.980;2022-12-29T21:50:57;64.95;;;27.00;;
43646;SDS011;56152;49.996;18.980;2022-12-29T21:56:30;48.50;;;24.95;;
43646;SDS011;56152;49.996;18.980;2022-12-29T22:01:34;56.10;;;26.85;;
43646;SDS011;56152;49.996;18.980;2022-12-29T22:06:55;54.67;;;24.63;;
43646;SDS011;56152;49.996;18.980;2022-12-29T22:12:14;66.50;;;28.25;;
43646;SDS011;56152;49.996;18.980;2022-12-29T22:17:35;56.72;;;27.83;;
43646;SDS011;56152;49.996;18.980;2022-12-29T22:22:37;45.40;;;24.60;;
43646;SDS011;56152;49.996;18.980;2022-12-29T22:27:43;69.90;;;32.30;;
43646;SDS011;56152;49.996;18.980;2022-12-29T22:32:47;55.33;;;24.65;;
43646;SDS011;56152;49.996;18.980;2022-12-29T22:37:49;65.88;;;30.67;;
43646;SDS011;56152;49.996;18.980;2022-12-29T22:42:51;52.35;;;25.52;;
43646;SDS011;56152;49.996;18.980;2022-12-29T22:47:54;58.20;;;29.13;;
43646;SDS011;56152;49.996;18.980;2022-12-29T22:52:58;74.75;;;33.33;;
43646;SDS011;56152;49.996;18.980;2022-12-29T22:58:00;56.35;;;28.50;;
43646;SDS011;56152;49.996;18.980;2022-12-29T23:03:04;59.28;;;28.38;;
43646;SDS011;56152;49.996;18.980;2022-12-29T23:08:06;39.72;;;22.13;;
43646;SDS011;56152;49.996;18.980;2022-12-29T23:13:08;38.97;;;19.63;;
43646;SDS011;56152;49.996;18.980;2022-12-29T23:18:11;40.38;;;22.10;;
43646;SDS011;56152;49.996;18.980;2022-12-29T23:23:14;41.17;;;19.65;;
43646;SDS011;56152;49.996;18.980;2022-12-29T23:28:37;40.00;;;21.85;;
43646;SDS011;56152;49.996;18.980;2022-12-29T23:33:41;47.83;;;23.50;;
43646;SDS011;56152;49.996;18.980;2022-12-29T23:38:45;56.22;;;26.05;;
43646;SDS011;56152;49.996;18.980;2022-12-29T23:43:49;60.08;;;30.38;;
43646;SDS011;56152;49.996;18.980;2022-12-29T23:48:53;57.90;;;30.10;;
43646;SDS011;56152;49.996;18.980;2022-12-29T23:53:55;57.15;;;26.17;;
43646;SDS011;56152;49.996;18.980;2022-12-29T23:58:58;84.55;;;37.45;;
